createdAt,value
2023-01-02T00:04:56.566Z,10.90
2023-01-02T00:09:56.388Z,9.40
2023-01-02T00:14:56.499Z,9.40
2023-01-02T00:19:56.591Z,9.40
2023-01-02T00:24:56.506Z,9.40
2023-01-02T00:34:56.584Z,9.40
2023-01-02T00:44:56.703Z,10.60
2023-01-02T00:49:56.498Z,10.60
2023-01-02T00:59:56.551Z,10.60
2023-01-02T01:04:56.688Z,10.60
2023-01-02T01:09:56.593Z,9.30
2023-01-02T01:14:56.572Z,9.30
2023-01-02T01:19:56.571Z,9.30
2023-01-02T01:24:56.583Z,9.30
2023-01-02T01:29:56.610Z,9.30
2023-01-02T01:34:56.801Z,9.30
2023-01-02T01:39:57.055Z,9.10
2023-01-02T01:44:56.777Z,9.10
2023-01-02T01:50:05.603Z,9.10
2023-01-02T01:55:04.768Z,9.10
2023-01-02T01:59:58.844Z,9.10
2023-01-02T02:04:59.740Z,9.10
2023-01-02T02:10:02.689Z,10.00
2023-01-02T02:14:56.792Z,10.00
2023-01-02T02:20:09.352Z,10.00
2023-01-02T02:25:16.555Z,10.00
2023-01-02T02:30:04.717Z,10.00
2023-01-02T02:35:02.395Z,10.00
2023-01-02T02:40:07.933Z,5.40
2023-01-02T02:45:03.983Z,5.40
2023-01-02T02:50:03.559Z,5.40
2023-01-02T02:55:01.831Z,5.40
2023-01-02T03:05:00.136Z,5.40
2023-01-02T03:10:08.094Z,9.20
2023-01-02T03:15:08.701Z,9.20
2023-01-02T03:20:00.936Z,9.20
2023-01-02T03:24:57.950Z,9.20
2023-01-02T03:30:02.006Z,9.20
2023-01-02T03:34:59.835Z,9.20
2023-01-02T03:40:02.028Z,10.90
2023-01-02T03:45:02.270Z,10.90
2023-01-02T03:50:01.842Z,10.90
2023-01-02T04:00:03.079Z,10.90
2023-01-02T04:05:00.216Z,10.90
2023-01-02T04:09:59.383Z,5.90
2023-01-02T04:14:59.919Z,5.90
2023-01-02T04:20:00.719Z,5.90
2023-01-02T04:25:01.729Z,5.90
2023-01-02T04:29:57.189Z,5.90
2023-01-02T04:34:59.508Z,5.90
2023-01-02T04:40:01.860Z,9.00
2023-01-02T04:44:57.176Z,9.00
2023-01-02T04:49:57.265Z,9.00
2023-01-02T04:54:57.135Z,9.00
2023-01-02T04:59:57.171Z,9.00
2023-01-02T05:09:57.220Z,8.80
2023-01-02T05:14:57.195Z,8.80
2023-01-02T05:19:57.285Z,8.80
2023-01-02T05:24:57.443Z,8.80
2023-01-02T05:29:57.204Z,8.80
2023-01-02T05:34:57.300Z,8.80
2023-01-02T05:39:57.246Z,8.50
2023-01-02T05:44:57.310Z,8.50
2023-01-02T05:49:57.336Z,8.50
2023-01-02T05:54:57.294Z,8.50
2023-01-02T05:59:57.284Z,8.50
2023-01-02T06:04:57.323Z,8.50
2023-01-02T06:09:57.383Z,11.40
2023-01-02T06:14:57.614Z,11.40
2023-01-02T06:19:57.455Z,11.40
2023-01-02T06:29:57.427Z,11.40
2023-01-02T06:34:57.591Z,11.40
2023-01-02T06:39:57.440Z,9.90
2023-01-02T06:44:57.644Z,9.90
2023-01-02T06:49:57.483Z,9.90
2023-01-02T06:54:57.695Z,9.90
2023-01-02T06:59:57.479Z,9.90
2023-01-02T07:04:57.640Z,9.90
2023-01-02T07:09:57.534Z,13.80
2023-01-02T07:14:57.645Z,13.80
2023-01-02T07:20:01.810Z,13.80
2023-01-02T07:29:57.913Z,13.80
2023-01-02T07:34:57.690Z,13.80
2023-01-02T07:39:57.568Z,9.10
2023-01-02T07:44:57.675Z,9.10
2023-01-02T07:49:57.673Z,9.10
2023-01-02T07:54:57.755Z,9.10
2023-01-02T07:59:57.680Z,9.10
2023-01-02T08:04:57.745Z,9.10
2023-01-02T08:09:57.670Z,6.30
2023-01-02T08:20:03.106Z,6.30
2023-01-02T08:24:57.738Z,6.30
2023-01-02T08:29:58.494Z,6.30
2023-01-02T08:34:57.724Z,6.30
2023-01-02T08:39:57.838Z,7.20
2023-01-02T08:44:57.750Z,7.20
2023-01-02T08:49:57.810Z,7.20
2023-01-02T08:54:59.902Z,7.20
2023-01-02T08:59:57.867Z,7.20
2023-01-02T09:04:58.061Z,7.20
2023-01-02T09:09:58.336Z,8.10
2023-01-02T09:14:57.830Z,8.10
2023-01-02T09:19:57.856Z,8.10
2023-01-02T09:24:57.902Z,8.10
2023-01-02T09:29:57.859Z,8.10
2023-01-02T09:34:58.089Z,8.10
2023-01-02T09:39:57.920Z,6.70
2023-01-02T09:45:06.509Z,6.70
2023-01-02T09:50:02.516Z,6.70
2023-01-02T09:54:58.586Z,6.70
2023-01-02T10:00:03.523Z,6.70
2023-01-02T10:05:15.816Z,6.70
2023-01-02T10:10:07.127Z,7.10
2023-01-02T10:15:00.737Z,7.10
2023-01-02T10:20:02.468Z,7.10
2023-01-02T10:25:05.811Z,7.10
2023-01-02T10:30:13.331Z,7.10
2023-01-02T10:35:10.339Z,7.10
2023-01-02T10:39:58.461Z,7.50
2023-01-02T10:44:58.400Z,7.50
2023-01-02T10:50:00.162Z,7.50
2023-01-02T10:55:00.340Z,7.50
2023-01-02T11:00:00.183Z,7.50
2023-01-02T11:05:01.799Z,7.50
2023-01-02T11:09:58.262Z,3.00
2023-01-02T11:15:09.517Z,3.00
2023-01-02T11:25:01.650Z,3.00
2023-01-02T11:29:59.890Z,3.00
2023-01-02T11:35:01.205Z,3.00
2023-01-02T11:40:00.158Z,4.50
2023-01-02T11:45:04.229Z,4.50
2023-01-02T11:49:58.432Z,4.50
2023-01-02T11:55:04.123Z,4.50
2023-01-02T12:00:02.016Z,4.50
2023-01-02T12:04:58.469Z,4.50
2023-01-02T12:10:06.212Z,4.10
2023-01-02T12:25:05.924Z,4.10
2023-01-02T12:30:06.590Z,4.10
2023-01-02T12:35:13.478Z,4.10
2023-01-02T12:40:18.072Z,4.70
2023-01-02T12:44:59.484Z,4.70
2023-01-02T12:50:18.286Z,4.70
2023-01-02T12:55:16.607Z,4.70
2023-01-02T13:00:14.845Z,4.70
2023-01-02T13:05:04.049Z,4.70
2023-01-02T13:10:02.244Z,4.30
2023-01-02T13:15:01.849Z,4.30
2023-01-02T13:20:08.788Z,4.30
2023-01-02T13:24:59.314Z,4.30
2023-01-02T13:30:01.447Z,4.30
2023-01-02T13:35:01.123Z,4.30
2023-01-02T13:40:02.292Z,4.70
2023-01-02T13:44:59.405Z,4.70
2023-01-02T13:50:06.826Z,4.70
2023-01-02T13:55:10.341Z,4.70
2023-01-02T14:04:58.634Z,4.70
2023-01-02T14:10:01.987Z,3.00
2023-01-02T14:14:58.668Z,3.00
2023-01-02T14:20:18.545Z,3.00
2023-01-02T14:30:02.240Z,3.00
2023-01-02T14:35:01.450Z,3.00
2023-01-02T14:40:08.652Z,5.20
2023-01-02T14:50:02.259Z,5.20
2023-01-02T14:55:05.852Z,5.20
2023-01-02T15:00:03.675Z,5.20
2023-01-02T15:05:06.388Z,5.20
2023-01-02T15:10:02.926Z,2.60
2023-01-02T15:14:58.828Z,2.60
2023-01-02T15:20:00.387Z,2.60
2023-01-02T15:24:58.871Z,2.60
2023-01-02T15:30:00.911Z,2.60
2023-01-02T15:35:09.030Z,2.60
2023-01-02T15:39:59.076Z,4.40
2023-01-02T15:45:09.251Z,4.40
2023-01-02T15:50:12.986Z,4.40
2023-01-02T15:54:59.357Z,4.40
2023-01-02T16:00:00.068Z,4.40
2023-01-02T16:05:09.605Z,4.40
2023-01-02T16:09:59.032Z,13.30
2023-01-02T16:15:01.194Z,13.30
2023-01-02T16:20:00.997Z,13.30
2023-01-02T16:25:05.855Z,13.30
2023-01-02T16:30:00.365Z,13.30
2023-01-02T16:35:11.112Z,13.30
2023-01-02T16:40:18.960Z,4.90
2023-01-02T16:44:59.052Z,4.90
2023-01-02T16:49:59.171Z,4.90
2023-01-02T16:54:59.197Z,4.90
2023-01-02T16:59:59.152Z,4.90
2023-01-02T17:04:59.146Z,4.90
2023-01-02T17:09:59.278Z,5.50
2023-01-02T17:14:59.345Z,5.50
2023-01-02T17:19:59.269Z,5.50
2023-01-02T17:24:59.380Z,5.50
2023-01-02T17:29:59.509Z,5.50
2023-01-02T17:34:59.244Z,5.50
2023-01-02T17:39:59.368Z,10.00
2023-01-02T17:44:59.377Z,10.00
2023-01-02T17:50:00.139Z,10.00
2023-01-02T17:54:59.221Z,10.00
2023-01-02T17:59:59.285Z,10.00
2023-01-02T18:04:59.393Z,10.00
2023-01-02T18:10:09.082Z,15.80
2023-01-02T18:15:02.430Z,15.80
2023-01-02T18:20:01.459Z,15.80
2023-01-02T18:25:15.569Z,15.80
2023-01-02T18:30:06.557Z,15.80
2023-01-02T18:35:37.946Z,15.80
2023-01-02T18:44:59.880Z,14.00
2023-01-02T18:55:01.821Z,14.00
2023-01-02T19:00:10.893Z,14.00
2023-01-02T19:04:59.393Z,14.00
2023-01-02T19:10:19.389Z,16.50
2023-01-02T19:15:01.088Z,16.50
2023-01-02T19:19:59.693Z,16.50
2023-01-02T19:25:05.696Z,16.50
2023-01-02T19:29:59.722Z,16.50
2023-01-02T19:35:14.892Z,16.50
2023-01-02T19:40:01.997Z,13.00
2023-01-02T19:45:01.183Z,13.00
2023-01-02T19:50:00.624Z,13.00
2023-01-02T19:55:00.176Z,13.00
2023-01-02T19:59:59.826Z,13.00
2023-01-02T20:15:01.990Z,8.70
2023-01-02T20:19:59.947Z,8.70
2023-01-02T20:29:59.709Z,8.70
2023-01-02T20:34:59.989Z,8.70
2023-01-02T20:39:59.827Z,8.50
2023-01-02T20:44:59.695Z,8.50
2023-01-02T20:49:59.903Z,8.50
2023-01-02T20:54:59.865Z,8.50
2023-01-02T21:00:00.408Z,8.50
2023-01-02T21:04:59.737Z,8.50
2023-01-02T21:10:00.149Z,10.70
2023-01-02T21:14:59.745Z,10.70
2023-01-02T21:19:59.942Z,10.70
2023-01-02T21:29:59.918Z,10.70
2023-01-02T21:34:59.798Z,10.70
2023-01-02T21:40:00.255Z,15.50
2023-01-02T21:44:59.898Z,15.50
2023-01-02T21:49:59.861Z,15.50
2023-01-02T21:54:59.991Z,15.50
2023-01-02T22:00:02.321Z,15.50
2023-01-02T22:04:59.893Z,15.50
2023-01-02T22:09:59.945Z,8.70
2023-01-02T22:15:00.342Z,8.70
2023-01-02T22:20:00.347Z,8.70
2023-01-02T22:25:00.409Z,8.70
2023-01-02T22:30:33.941Z,8.70
2023-01-02T22:35:01.824Z,8.70
2023-01-02T22:40:00.770Z,13.20
2023-01-02T22:45:00.245Z,13.20
2023-01-02T22:50:00.453Z,13.20
2023-01-02T22:55:01.315Z,13.20
2023-01-02T23:00:00.043Z,13.20
2023-01-02T23:10:00.134Z,13.80
2023-01-02T23:15:00.159Z,13.80
2023-01-02T23:20:00.186Z,13.80
2023-01-02T23:25:00.510Z,13.80
2023-01-02T23:30:00.292Z,13.80
2023-01-02T23:35:00.165Z,13.80
2023-01-02T23:40:00.462Z,11.60
2023-01-02T23:55:00.257Z,11.60
